createdAt,value
2022-12-23T00:00:41.368Z,1.07
2022-12-23T00:03:08.505Z,0.60
2022-12-23T00:05:38.218Z,0.93
2022-12-23T00:08:06.884Z,1.80
2022-12-23T00:10:35.256Z,0.80
2022-12-23T00:13:20.337Z,0.53
2022-12-23T00:15:47.021Z,0.73
2022-12-23T00:18:13.695Z,0.30
2022-12-23T00:20:40.441Z,0.93
2022-12-23T00:23:07.295Z,0.83
2022-12-23T00:25:44.091Z,1.40
2022-12-23T00:28:16.843Z,0.80
2022-12-23T00:30:49.382Z,1.00
2022-12-23T00:33:20.033Z,0.60
2022-12-23T00:35:47.152Z,0.83
2022-12-23T00:38:14.556Z,0.77
2022-12-23T00:41:00.240Z,1.43
2022-12-23T00:43:27.288Z,1.80
2022-12-23T00:45:54.576Z,0.90
2022-12-23T00:48:39.759Z,0.57
2022-12-23T00:51:06.511Z,1.63
2022-12-23T00:53:33.204Z,0.70
2022-12-23T00:55:59.847Z,0.80
2022-12-23T00:58:26.657Z,0.70
2022-12-23T01:01:12.305Z,1.47
2022-12-23T01:03:57.853Z,0.87
2022-12-23T01:06:24.634Z,1.03
2022-12-23T01:08:51.561Z,0.60
2022-12-23T01:11:18.450Z,1.03
2022-12-23T01:13:45.119Z,2.77
2022-12-23T01:16:17.347Z,0.70
2022-12-23T01:18:45.277Z,0.50
2022-12-23T01:21:12.310Z,0.70
2022-12-23T01:23:39.241Z,1.03
2022-12-23T01:26:07.648Z,0.80
2022-12-23T01:28:35.528Z,1.80
2022-12-23T01:31:04.229Z,0.67
2022-12-23T01:33:32.871Z,1.23
2022-12-23T01:36:04.261Z,1.63
2022-12-23T01:38:30.900Z,1.20
2022-12-23T01:40:57.895Z,1.13
2022-12-23T01:43:45.492Z,1.00
2022-12-23T01:46:12.420Z,1.43
2022-12-23T01:48:40.982Z,0.80
2022-12-23T01:51:16.155Z,0.83
2022-12-23T01:53:57.305Z,1.63
2022-12-23T01:56:44.205Z,3.73
2022-12-23T01:59:37.903Z,1.47
2022-12-23T02:02:23.362Z,1.50
2022-12-23T02:04:50.997Z,0.87
2022-12-23T02:07:37.010Z,1.13
2022-12-23T02:10:05.273Z,1.20
2022-12-23T02:13:00.661Z,0.70
2022-12-23T02:16:24.454Z,0.80
2022-12-23T02:19:12.413Z,1.90
2022-12-23T02:22:09.933Z,2.50
2022-12-23T02:25:15.428Z,2.50
2022-12-23T02:27:52.216Z,1.03
2022-12-23T02:30:30.240Z,1.50
2022-12-23T02:32:56.942Z,1.50
2022-12-23T02:35:51.173Z,1.60
2022-12-23T02:38:26.862Z,1.73
2022-12-23T02:41:02.656Z,0.90
2022-12-23T02:43:55.732Z,1.27
2022-12-23T02:46:26.671Z,0.87
2022-12-23T02:49:08.537Z,0.90
2022-12-23T02:51:41.896Z,0.90
2022-12-23T02:54:13.630Z,0.87
2022-12-23T02:56:45.243Z,1.03
2022-12-23T02:59:26.073Z,0.97
2022-12-23T03:01:54.741Z,0.93
2022-12-23T03:04:21.543Z,2.03
2022-12-23T03:06:52.397Z,0.80
2022-12-23T03:09:51.823Z,1.73
2022-12-23T03:12:33.985Z,0.90
2022-12-23T03:15:27.095Z,0.80
2022-12-23T03:18:03.489Z,1.00
2022-12-23T03:21:18.293Z,1.73
2022-12-23T03:23:55.741Z,0.40
2022-12-23T03:26:52.074Z,0.97
2022-12-23T03:29:26.213Z,1.17
2022-12-23T03:31:57.500Z,1.00
2022-12-23T03:34:28.481Z,0.47
2022-12-23T03:36:58.746Z,0.63
2022-12-23T03:39:32.965Z,0.80
2022-12-23T03:42:08.798Z,1.77
2022-12-23T03:45:03.681Z,0.60
2022-12-23T03:47:35.845Z,1.07
2022-12-23T03:50:11.557Z,0.90
2022-12-23T03:52:48.353Z,1.50
2022-12-23T03:55:22.149Z,0.63
2022-12-23T03:58:03.021Z,1.30
2022-12-23T04:00:35.843Z,0.73
2022-12-23T04:03:21.894Z,2.10
2022-12-23T04:05:54.520Z,1.03
2022-12-23T04:08:43.018Z,1.17
2022-12-23T04:11:10.095Z,2.00
2022-12-23T04:13:36.953Z,2.17
2022-12-23T04:16:04.599Z,2.33
2022-12-23T04:18:31.382Z,2.07
2022-12-23T04:20:58.239Z,1.50
2022-12-23T04:23:24.870Z,3.53
2022-12-23T04:25:51.605Z,2.33
2022-12-23T04:28:18.324Z,2.17
2022-12-23T04:30:45.007Z,1.50
2022-12-23T04:33:12.447Z,1.60
2022-12-23T04:35:39.291Z,1.23
2022-12-23T04:38:06.215Z,2.27
2022-12-23T04:40:32.953Z,2.17
2022-12-23T04:42:59.704Z,1.93
2022-12-23T04:45:26.433Z,2.07
2022-12-23T04:47:54.431Z,1.20
2022-12-23T04:50:21.283Z,1.77
2022-12-23T04:52:47.913Z,1.03
2022-12-23T04:55:14.622Z,1.40
2022-12-23T04:57:41.310Z,1.77
2022-12-23T05:00:08.651Z,1.37
2022-12-23T05:02:35.491Z,1.57
2022-12-23T05:05:02.356Z,1.73
2022-12-23T05:07:29.051Z,2.13
2022-12-23T05:09:57.509Z,2.03
2022-12-23T05:12:24.194Z,2.43
2022-12-23T05:14:50.891Z,1.30
2022-12-23T05:17:17.524Z,1.50
2022-12-23T05:19:44.197Z,2.40
2022-12-23T05:22:10.877Z,1.37
2022-12-23T05:24:37.578Z,1.00
2022-12-23T05:27:04.297Z,1.10
2022-12-23T05:29:31.233Z,0.80
2022-12-23T05:31:58.063Z,1.67
2022-12-23T05:34:24.720Z,0.70
2022-12-23T05:36:51.358Z,0.93
2022-12-23T05:39:17.968Z,2.37
2022-12-23T05:41:45.823Z,1.07
2022-12-23T05:44:12.566Z,2.03
2022-12-23T05:46:39.304Z,1.50
2022-12-23T05:49:06.081Z,1.47
2022-12-23T05:51:32.697Z,1.07
2022-12-23T05:53:59.470Z,1.47
2022-12-23T05:56:26.131Z,1.07
2022-12-23T05:58:52.869Z,1.47
2022-12-23T06:01:19.479Z,1.13
2022-12-23T06:03:46.212Z,2.63
2022-12-23T06:06:13.079Z,2.17
2022-12-23T06:08:39.821Z,1.40
2022-12-23T06:11:06.630Z,3.50
2022-12-23T06:13:33.292Z,1.00
2022-12-23T06:16:00.048Z,2.50
2022-12-23T06:18:26.752Z,1.20
2022-12-23T06:20:53.408Z,1.53
2022-12-23T06:23:20.076Z,1.47
2022-12-23T06:25:46.661Z,2.30
2022-12-23T06:28:13.446Z,1.60
2022-12-23T06:30:40.106Z,3.40
2022-12-23T06:33:06.730Z,3.83
2022-12-23T06:35:33.307Z,2.80
2022-12-23T06:37:59.989Z,2.03
2022-12-23T06:40:28.945Z,1.73
2022-12-23T06:42:55.690Z,2.33
2022-12-23T06:45:22.411Z,2.10
2022-12-23T06:47:49.196Z,2.37
2022-12-23T06:50:16.040Z,2.00
2022-12-23T06:52:42.789Z,2.73
2022-12-23T06:55:09.603Z,2.40
2022-12-23T06:57:36.378Z,2.03
2022-12-23T07:00:05.162Z,1.37
2022-12-23T07:02:32.705Z,3.17
2022-12-23T07:04:59.433Z,2.67
2022-12-23T07:07:26.178Z,2.00
2022-12-23T07:09:52.869Z,2.90
2022-12-23T07:12:19.605Z,3.13
2022-12-23T07:14:46.307Z,3.37
2022-12-23T07:17:13.370Z,2.13
2022-12-23T07:19:41.616Z,2.07
2022-12-23T07:22:10.124Z,1.37
2022-12-23T07:24:37.487Z,1.80
2022-12-23T07:27:04.608Z,2.97
2022-12-23T07:29:31.373Z,3.07
2022-12-23T07:31:58.265Z,3.40
2022-12-23T07:34:25.158Z,3.00
2022-12-23T07:36:52.031Z,7.17
2022-12-23T07:39:18.865Z,3.83
2022-12-23T07:41:45.670Z,2.37
2022-12-23T07:44:13.154Z,3.63
2022-12-23T07:46:39.972Z,4.87
2022-12-23T07:49:06.712Z,3.43
2022-12-23T07:51:33.467Z,2.57
2022-12-23T07:54:00.151Z,2.60
2022-12-23T07:56:26.977Z,3.47
2022-12-23T07:58:54.417Z,3.90
2022-12-23T08:01:21.746Z,3.07
2022-12-23T08:03:48.627Z,2.00
2022-12-23T08:06:16.403Z,2.23
2022-12-23T08:08:45.337Z,2.23
2022-12-23T08:11:14.008Z,2.77
2022-12-23T08:13:42.775Z,1.67
2022-12-23T08:16:10.439Z,2.23
2022-12-23T08:18:39.472Z,2.97
2022-12-23T08:21:12.578Z,3.53
2022-12-23T08:23:39.365Z,4.03
2022-12-23T08:26:10.699Z,1.80
2022-12-23T08:28:38.967Z,2.90
2022-12-23T08:31:32.386Z,3.33
2022-12-23T08:34:00.785Z,1.63
2022-12-23T08:36:30.416Z,3.30
2022-12-23T08:38:58.912Z,2.17
2022-12-23T08:41:28.615Z,2.23
2022-12-23T08:43:56.035Z,1.57
2022-12-23T08:46:23.292Z,3.03
2022-12-23T08:48:50.278Z,3.23
2022-12-23T08:51:18.769Z,2.57
2022-12-23T08:53:46.143Z,2.37
2022-12-23T08:56:21.251Z,3.80
2022-12-23T08:58:50.217Z,2.80
2022-12-23T09:01:19.021Z,2.67
2022-12-23T09:03:46.589Z,4.07
2022-12-23T09:06:28.655Z,4.03
2022-12-23T09:08:57.167Z,4.30
2022-12-23T09:11:26.234Z,4.93
2022-12-23T09:13:53.952Z,4.30
2022-12-23T09:16:21.137Z,6.40
2022-12-23T09:18:48.176Z,3.43
2022-12-23T09:21:17.914Z,2.60
2022-12-23T09:23:44.930Z,3.20
2022-12-23T09:26:17.953Z,3.10
2022-12-23T09:28:44.716Z,2.60
2022-12-23T09:31:12.798Z,2.30
2022-12-23T09:33:39.753Z,2.10
2022-12-23T09:36:06.790Z,1.97
2022-12-23T09:38:33.796Z,3.37
2022-12-23T09:41:04.454Z,3.30
2022-12-23T09:43:46.406Z,2.43
2022-12-23T09:46:20.415Z,2.70
2022-12-23T09:49:00.700Z,4.57
2022-12-23T09:51:29.052Z,4.47
2022-12-23T09:54:10.852Z,4.33
2022-12-23T09:56:56.626Z,5.53
2022-12-23T09:59:35.594Z,4.70
2022-12-23T10:02:23.735Z,4.30
2022-12-23T10:05:15.711Z,5.27
2022-12-23T10:07:49.355Z,4.67
2022-12-23T10:10:36.259Z,5.93
2022-12-23T10:13:06.187Z,4.37
2022-12-23T10:15:38.139Z,5.50
2022-12-23T10:18:16.599Z,7.47
2022-12-23T10:21:06.253Z,4.57
2022-12-23T10:23:42.929Z,6.67
2022-12-23T10:26:18.494Z,5.53
2022-12-23T10:28:45.267Z,5.57
2022-12-23T10:31:39.839Z,6.03
2022-12-23T10:34:18.666Z,5.17
2022-12-23T10:37:11.598Z,5.87
2022-12-23T10:39:53.205Z,6.67
2022-12-23T10:42:34.042Z,5.97
2022-12-23T10:45:13.219Z,6.53
2022-12-23T10:47:39.930Z,6.03
2022-12-23T10:50:27.006Z,5.03
2022-12-23T10:52:57.003Z,4.47
2022-12-23T10:55:33.760Z,5.57
2022-12-23T10:58:19.865Z,4.77
2022-12-23T11:00:53.638Z,7.40
2022-12-23T11:03:38.449Z,3.83
2022-12-23T11:06:08.629Z,3.70
2022-12-23T11:08:36.856Z,5.80
2022-12-23T11:11:03.731Z,3.57
2022-12-23T11:13:34.519Z,5.73
2022-12-23T11:16:24.516Z,2.73
2022-12-23T11:19:06.375Z,3.50
2022-12-23T11:21:33.816Z,3.83
2022-12-23T11:24:08.120Z,1.93
2022-12-23T11:26:35.875Z,3.53
2022-12-23T11:29:10.961Z,1.97
2022-12-23T11:31:38.321Z,3.53
2022-12-23T11:34:13.444Z,1.70
2022-12-23T11:36:41.319Z,2.20
2022-12-23T11:39:07.982Z,2.77
2022-12-23T11:41:40.009Z,2.33
2022-12-23T11:44:17.160Z,3.37
2022-12-23T11:46:43.899Z,1.80
2022-12-23T11:49:22.375Z,1.40
2022-12-23T11:52:11.008Z,1.53
2022-12-23T11:54:38.876Z,1.77
2022-12-23T11:57:21.789Z,1.57
2022-12-23T11:59:50.040Z,1.83
2022-12-23T12:02:26.729Z,1.73
2022-12-23T12:05:02.472Z,1.97
2022-12-23T12:07:30.582Z,2.67
2022-12-23T12:10:00.043Z,1.73
2022-12-23T12:12:28.738Z,2.43
2022-12-23T12:14:57.970Z,2.57
2022-12-23T12:17:36.782Z,2.43
2022-12-23T12:20:19.610Z,3.23
2022-12-23T12:22:52.533Z,2.70
2022-12-23T12:25:37.886Z,3.07
2022-12-23T12:28:13.364Z,4.77
2022-12-23T12:30:50.206Z,3.27
2022-12-23T12:33:27.135Z,4.60
2022-12-23T12:36:06.411Z,3.63
2022-12-23T12:38:37.833Z,3.00
2022-12-23T12:41:24.845Z,3.30
2022-12-23T12:44:13.577Z,2.27
2022-12-23T12:46:46.498Z,2.30
2022-12-23T12:49:38.390Z,1.90
2022-12-23T12:52:13.427Z,2.57
2022-12-23T12:54:46.556Z,2.50
2022-12-23T12:57:17.833Z,3.57
2022-12-23T12:59:47.877Z,2.40
2022-12-23T13:02:30.096Z,1.77
2022-12-23T13:05:02.746Z,2.13
2022-12-23T13:07:39.138Z,2.47
2022-12-23T13:10:43.168Z,2.70
2022-12-23T13:13:25.391Z,2.70
2022-12-23T13:16:00.890Z,2.53
2022-12-23T13:18:50.810Z,2.70
2022-12-23T13:21:49.957Z,1.60
2022-12-23T13:24:43.740Z,2.07
2022-12-23T13:27:38.465Z,1.70
2022-12-23T13:30:17.841Z,1.93
2022-12-23T13:33:15.457Z,1.80
2022-12-23T13:35:48.227Z,0.93
2022-12-23T13:38:48.351Z,0.90
2022-12-23T13:41:32.529Z,1.27
2022-12-23T13:44:05.457Z,1.20
2022-12-23T13:46:47.565Z,1.20
2022-12-23T13:49:32.262Z,0.90
2022-12-23T13:52:24.138Z,0.60
2022-12-23T13:54:59.537Z,0.73
2022-12-23T13:57:47.946Z,0.60
2022-12-23T14:00:17.973Z,0.70
2022-12-23T14:03:03.000Z,1.30
2022-12-23T14:05:40.931Z,1.17
2022-12-23T14:08:20.131Z,1.30
2022-12-23T14:10:55.851Z,2.93
2022-12-23T14:13:34.077Z,1.87
2022-12-23T14:16:24.620Z,1.27
2022-12-23T14:19:10.352Z,1.03
2022-12-23T14:22:04.259Z,1.10
2022-12-23T14:24:46.336Z,0.83
2022-12-23T14:27:34.517Z,1.67
2022-12-23T14:30:30.976Z,0.60
2022-12-23T14:32:59.939Z,1.43
2022-12-23T14:35:38.477Z,0.73
2022-12-23T14:38:15.029Z,0.50
2022-12-23T14:40:41.716Z,0.40
2022-12-23T14:43:30.391Z,0.60
2022-12-23T14:46:02.021Z,1.13
2022-12-23T14:48:34.748Z,0.77
2022-12-23T14:51:10.296Z,1.43
2022-12-23T14:53:58.574Z,0.83
2022-12-23T14:56:40.556Z,0.93
2022-12-23T14:59:33.081Z,0.87
2022-12-23T15:02:16.284Z,1.67
2022-12-23T15:05:09.648Z,2.27
2022-12-23T15:07:43.982Z,2.57
2022-12-23T15:10:21.547Z,0.80
2022-12-23T15:12:52.296Z,1.00
2022-12-23T15:15:22.346Z,0.20
2022-12-23T15:18:00.242Z,2.03
2022-12-23T15:20:26.954Z,0.23
2022-12-23T15:22:53.620Z,0.67
2022-12-23T15:25:33.967Z,0.40
2022-12-23T15:28:03.225Z,0.57
2022-12-23T15:30:36.218Z,2.93
2022-12-23T15:33:21.871Z,0.90
2022-12-23T15:35:54.243Z,0.73
2022-12-23T15:38:24.420Z,0.70
2022-12-23T15:41:03.191Z,1.40
2022-12-23T15:43:30.908Z,1.13
2022-12-23T15:46:16.910Z,1.23
2022-12-23T15:48:44.209Z,0.60
2022-12-23T15:52:05.204Z,1.40
2022-12-23T15:54:22.686Z,1.20
2022-12-23T15:56:52.135Z,2.10
2022-12-23T15:59:25.282Z,1.77
2022-12-23T16:01:52.576Z,0.63
2022-12-23T16:04:27.003Z,1.43
2022-12-23T16:06:55.449Z,1.00
2022-12-23T16:09:35.919Z,1.40
2022-12-23T16:12:25.120Z,1.50
2022-12-23T16:15:02.755Z,2.40
2022-12-23T16:17:35.180Z,1.17
2022-12-23T16:20:22.267Z,1.37
2022-12-23T16:22:53.090Z,1.30
2022-12-23T16:25:27.571Z,1.97
2022-12-23T16:28:02.989Z,2.57
2022-12-23T16:30:34.513Z,2.57
2022-12-23T16:33:04.586Z,3.93
2022-12-23T16:35:41.170Z,1.73
2022-12-23T16:38:21.182Z,3.00
2022-12-23T16:40:52.874Z,3.03
2022-12-23T16:43:21.032Z,2.87
2022-12-23T16:45:52.553Z,2.90
2022-12-23T16:48:32.293Z,2.03
2022-12-23T16:51:00.394Z,2.23
2022-12-23T16:53:27.619Z,1.93
2022-12-23T16:56:00.330Z,1.93
2022-12-23T16:58:27.855Z,3.83
2022-12-23T17:00:54.947Z,2.13
2022-12-23T17:03:21.733Z,2.53
2022-12-23T17:05:48.735Z,2.53
2022-12-23T17:08:15.831Z,3.90
2022-12-23T17:10:44.529Z,4.83
2022-12-23T17:13:17.319Z,3.47
2022-12-23T17:15:45.050Z,4.30
2022-12-23T17:18:17.532Z,3.70
2022-12-23T17:20:46.014Z,1.67
2022-12-23T17:23:31.006Z,4.17
2022-12-23T17:25:58.688Z,3.13
2022-12-23T17:28:31.719Z,3.63
2022-12-23T17:30:58.995Z,2.83
2022-12-23T17:33:30.354Z,4.77
2022-12-23T17:35:57.620Z,2.43
2022-12-23T17:38:24.970Z,2.73
2022-12-23T17:40:51.759Z,2.40
2022-12-23T17:43:19.095Z,2.27
2022-12-23T17:45:47.017Z,2.30
2022-12-23T17:48:20.179Z,2.37
2022-12-23T17:50:48.790Z,3.50
2022-12-23T17:53:19.625Z,3.20
2022-12-23T17:55:46.692Z,3.47
2022-12-23T17:58:14.235Z,4.63
2022-12-23T18:00:41.576Z,3.07
2022-12-23T18:03:20.948Z,3.53
2022-12-23T18:05:47.708Z,3.90
2022-12-23T18:08:14.362Z,4.60
2022-12-23T18:10:41.085Z,5.17
2022-12-23T18:13:18.350Z,5.60
2022-12-23T18:15:45.752Z,2.97
2022-12-23T18:18:24.083Z,4.47
2022-12-23T18:20:57.400Z,6.00
2022-12-23T18:23:29.878Z,5.67
2022-12-23T18:25:57.703Z,5.53
2022-12-23T18:28:25.399Z,3.80
2022-12-23T18:30:56.289Z,2.80
2022-12-23T18:33:24.175Z,2.77
2022-12-23T18:35:50.951Z,5.57
2022-12-23T18:38:18.171Z,7.43
2022-12-23T18:40:45.239Z,6.83
2022-12-23T18:43:19.667Z,6.37
2022-12-23T18:45:52.462Z,9.63
2022-12-23T18:48:20.222Z,7.87
2022-12-23T18:50:47.013Z,9.13
2022-12-23T18:53:23.875Z,5.40
2022-12-23T18:55:52.599Z,5.53
2022-12-23T18:58:19.743Z,5.87
2022-12-23T19:00:47.773Z,6.80
2022-12-23T19:03:27.187Z,7.73
2022-12-23T19:05:55.885Z,9.13
2022-12-23T19:08:27.191Z,7.47
2022-12-23T19:10:55.442Z,7.47
2022-12-23T19:13:22.367Z,7.07
2022-12-23T19:15:49.574Z,10.20
2022-12-23T19:18:19.234Z,9.33
2022-12-23T19:20:47.569Z,8.00
2022-12-23T19:23:15.262Z,11.93
2022-12-23T19:25:52.487Z,6.87
2022-12-23T19:28:22.143Z,7.07
2022-12-23T19:30:49.641Z,8.70
2022-12-23T19:33:16.859Z,14.73
2022-12-23T19:35:44.511Z,9.93
2022-12-23T19:38:12.859Z,9.33
2022-12-23T19:40:40.223Z,8.90
2022-12-23T19:43:07.242Z,12.27
2022-12-23T19:45:34.019Z,11.33
2022-12-23T19:48:00.715Z,12.07
2022-12-23T19:50:27.563Z,11.07
2022-12-23T19:52:56.093Z,12.43
2022-12-23T19:55:22.981Z,10.93
2022-12-23T19:57:49.750Z,10.07
2022-12-23T20:00:16.727Z,9.70
2022-12-23T20:02:43.581Z,8.47
2022-12-23T20:05:10.372Z,9.70
2022-12-23T20:07:37.385Z,7.00
2022-12-23T20:10:05.010Z,9.77
2022-12-23T20:12:31.756Z,6.60
2022-12-23T20:14:58.443Z,9.20
2022-12-23T20:17:25.260Z,12.00
2022-12-23T20:19:51.886Z,11.17
2022-12-23T20:22:18.729Z,9.73
2022-12-23T20:24:45.658Z,11.10
2022-12-23T20:27:15.620Z,7.03
2022-12-23T20:29:42.812Z,9.97
2022-12-23T20:32:10.181Z,6.57
2022-12-23T20:34:39.899Z,8.50
2022-12-23T20:37:07.590Z,8.07
2022-12-23T20:39:34.750Z,9.57
2022-12-23T20:42:01.520Z,12.03
2022-12-23T20:44:37.061Z,10.03
2022-12-23T20:47:07.033Z,9.77
2022-12-23T20:49:33.774Z,9.20
2022-12-23T20:52:01.347Z,7.67
2022-12-23T20:54:33.310Z,9.60
2022-12-23T20:57:02.464Z,9.47
2022-12-23T20:59:29.258Z,10.17
2022-12-23T21:01:59.001Z,6.50
2022-12-23T21:04:26.082Z,6.13
2022-12-23T21:06:52.775Z,9.27
2022-12-23T21:09:19.959Z,5.43
2022-12-23T21:11:47.384Z,5.73
2022-12-23T21:14:15.119Z,6.97
2022-12-23T21:16:42.617Z,5.23
2022-12-23T21:19:17.152Z,5.40
2022-12-23T21:21:44.530Z,4.60
2022-12-23T21:24:11.596Z,7.27
2022-12-23T21:26:38.821Z,6.37
2022-12-23T21:29:08.243Z,8.13
2022-12-23T21:31:38.011Z,9.57
2022-12-23T21:34:05.424Z,8.50
2022-12-23T21:36:34.936Z,10.33
2022-12-23T21:39:01.871Z,5.90
2022-12-23T21:41:31.466Z,8.40
2022-12-23T21:43:59.841Z,9.67
2022-12-23T21:46:28.354Z,7.27
2022-12-23T21:48:58.861Z,7.87
2022-12-23T21:51:38.929Z,7.40
2022-12-23T21:54:07.996Z,9.23
2022-12-23T21:56:35.038Z,8.80
2022-12-23T21:59:12.791Z,8.00
2022-12-23T22:01:41.387Z,8.17
2022-12-23T22:04:08.112Z,10.83
2022-12-23T22:06:38.214Z,8.03
2022-12-23T22:09:06.262Z,9.13
2022-12-23T22:11:35.106Z,9.33
2022-12-23T22:14:03.871Z,8.97
2022-12-23T22:16:31.617Z,12.63
2022-12-23T22:19:00.383Z,11.20
2022-12-23T22:21:29.314Z,10.70
2022-12-23T22:23:57.016Z,5.97
2022-12-23T22:26:26.897Z,10.57
2022-12-23T22:28:58.853Z,10.20
2022-12-23T22:31:39.926Z,9.80
2022-12-23T22:34:08.579Z,8.67
2022-12-23T22:36:35.681Z,8.00
2022-12-23T22:39:03.201Z,11.23
2022-12-23T22:41:31.180Z,13.20
2022-12-23T22:43:58.686Z,9.03
2022-12-23T22:46:26.480Z,9.37
2022-12-23T22:48:53.578Z,12.97
2022-12-23T22:51:25.399Z,9.27
2022-12-23T22:53:52.445Z,9.67
2022-12-23T22:56:20.819Z,13.07
2022-12-23T22:58:48.157Z,12.47
2022-12-23T23:01:21.303Z,11.70
2022-12-23T23:03:51.143Z,10.40
2022-12-23T23:06:18.742Z,9.73
2022-12-23T23:08:45.415Z,9.53
2022-12-23T23:11:12.105Z,10.07
2022-12-23T23:13:38.788Z,13.73
2022-12-23T23:16:05.942Z,8.40
2022-12-23T23:18:33.100Z,8.20
2022-12-23T23:21:00.045Z,10.00
2022-12-23T23:23:26.793Z,10.63
2022-12-23T23:25:53.440Z,12.17
2022-12-23T23:28:20.141Z,10.73
2022-12-23T23:30:47.033Z,8.63
2022-12-23T23:33:13.707Z,14.90
2022-12-23T23:35:40.637Z,10.93
2022-12-23T23:38:08.217Z,12.17
2022-12-23T23:40:35.605Z,11.57
2022-12-23T23:43:02.315Z,13.63
2022-12-23T23:45:30.111Z,9.57
2022-12-23T23:47:56.825Z,11.17
2022-12-23T23:50:23.534Z,12.53
2022-12-23T23:52:50.280Z,11.37
2022-12-23T23:55:17.018Z,12.83
2022-12-23T23:57:43.624Z,10.17
